Archival Weather

Agadez

Agadez, Niger (DRZA)

Report from: Thursday, September 21, 2023 9:00 AM WAT
Current time: Friday, February 23, 2024 8:18 PM WAT

Current weather – Weather history – Daily summaries
Weather forecast

Temperature33.0°C (91.4°F)
Heat index30.9°C (87.5°F)
Dew point6.0°C (42.8°F)
Winds 8 kts (4.1 m/s, 9.2 mph) East-Southeast (120°)
Clouds Sky clear
Altimeter29.94 in.Hg (1014 mB)
Relative humidity19 %
Density altitude2,165 ft. (660 m)
Remarks Ceiling and visibility OK
Flight conditions Visual Meteorological Conditions
Raw dataDRZA 210800Z 12008KT CAVOK 33/06 Q1014
An error has occurred. This application may no longer respond until reloaded. Reload 🗙